Time;durP1;ratioP1;P1;durP2;ratioP2;P2;SDS_P1;SDS_P2;PMS_P1;PMS_P2;Temp;Humidity;BMP_temperature;BMP_pressure;BME280_temperature;BME280_humidity;BME280_pressure;Samples;Min_cycle;Max_cycle;Signal;HPM_P1;HPM_P2
2021/08/19 00:01:58;;;;;;;;;;;17.30;1.00;;;;;;5013576;28;19913;-66
2021/08/19 00:04:23;;;;;;;;;;;17.30;1.00;;;;;;5014591;28;19924;-66
2021/08/19 00:06:49;;;;;;;;;;;17.30;1.00;;;;;;5017272;28;20339;-66
2021/08/19 00:09:14;;;;;;;;;;;17.40;1.00;;;;;;5017156;28;19936;-66
2021/08/19 00:11:40;;;;;;;;;;;17.40;1.00;;;;;;5013756;28;19935;-66
2021/08/19 00:14:05;;;;;;;;;;;17.40;1.00;;;;;;5015811;28;20289;-66
2021/08/19 00:16:31;;;;;;;;;;;17.30;1.00;;;;;;5016157;28;19914;-66
2021/08/19 00:18:56;;;;;;;;;;;17.30;30.10;;;;;;5015857;28;19913;-66
2021/08/19 00:21:22;;;;;;;;;;;17.30;99.90;;;;;;5017089;28;20369;-66
2021/08/19 00:23:47;;;;;;;;;;;17.30;99.90;;;;;;5015924;28;19941;-66
2021/08/19 00:26:13;;;;;;;;;;;17.30;1.00;;;;;;5005779;28;19910;-65
2021/08/19 00:28:38;;;;;;;;;;;17.20;1.00;;;;;;4996067;28;19910;-65
2021/08/19 00:31:04;;;;;;;;;;;17.20;1.00;;;;;;5005561;28;19921;-65
2021/08/19 00:33:29;;;;;;;;;;;17.20;1.00;;;;;;5006456;28;19961;-65
2021/08/19 00:35:55;;;;;;;;;;;17.10;1.00;;;;;;5023759;28;19957;-65
2021/08/19 00:38:21;;;;;;;;;;;17.10;1.00;;;;;;5018504;28;19985;-65
2021/08/19 00:40:47;;;;;;;;;;;17.10;1.00;;;;;;5027488;28;19909;-65
2021/08/19 00:43:12;;;;;;;;;;;17.10;1.00;;;;;;5028175;28;19909;-66
2021/08/19 00:45:38;;;;;;;;;;;17.10;1.00;;;;;;5028370;28;19913;-66
2021/08/19 00:48:04;;;;;;;;;;;17.00;1.00;;;;;;5028788;28;19969;-66
2021/08/19 00:50:29;;;;;;;;;;;17.10;1.00;;;;;;5029197;28;19931;-66
2021/08/19 00:52:56;;;;;;;;;;;17.00;1.00;;;;;;5028242;28;19987;-66
2021/08/19 00:55:21;;;;;;;;;;;17.00;30.70;;;;;;5028837;28;19972;-66
2021/08/19 00:57:47;;;;;;;;;;;17.00;71.00;;;;;;5027848;28;19910;-65
2021/08/19 01:00:13;;;;;;;;;;;17.00;99.90;;;;;;5016615;28;20374;-67
2021/08/19 01:02:47;;;;;;;;;;;17.00;99.90;;;;;;5012996;28;19910;-66
2021/08/19 01:05:16;;;;;;;;;;;17.00;99.90;;;;;;5013311;28;19917;-66
2021/08/19 01:07:44;;;;;;;;;;;17.00;99.90;;;;;;5013130;28;20012;-66
2021/08/19 01:10:10;;;;;;;;;;;17.00;99.90;;;;;;5013191;28;20250;-66
2021/08/19 01:12:35;;;;;;;;;;;17.00;99.90;;;;;;5011196;28;20000;-65
2021/08/19 01:15:01;;;;;;;;;;;17.00;99.90;;;;;;5012620;28;19996;-65
2021/08/19 01:17:28;;;;;;;;;;;17.00;99.90;;;;;;5012512;28;20012;-65
2021/08/19 01:19:53;;;;;;;;;;;17.00;99.90;;;;;;5012630;28;19914;-65
2021/08/19 01:22:19;;;;;;;;;;;17.00;99.90;;;;;;5011816;28;19918;-65
2021/08/19 01:24:45;;;;;;;;;;;17.00;99.90;;;;;;5012573;28;19925;-65
2021/08/19 01:27:12;;;;;;;;;;;17.00;99.90;;;;;;5011828;28;20359;-65
2021/08/19 01:29:38;;;;;;;;;;;17.00;99.90;;;;;;5012548;28;19979;-66
2021/08/19 01:32:04;;;;;;;;;;;16.90;99.90;;;;;;5011413;28;19960;-65
2021/08/19 01:34:30;;;;;;;;;;;16.90;99.90;;;;;;5012225;28;20374;-66
2021/08/19 01:36:56;;;;;;;;;;;16.90;99.90;;;;;;5003515;28;19960;-66
2021/08/19 01:39:22;;;;;;;;;;;16.90;99.90;;;;;;5012156;28;19913;-65
2021/08/19 01:41:48;;;;;;;;;;;16.80;99.90;;;;;;5011505;28;19913;-65
2021/08/19 01:44:13;;;;;;;;;;;16.80;99.90;;;;;;5011228;28;19936;-65
2021/08/19 01:46:39;;;;;;;;;;;16.80;99.90;;;;;;5012261;28;20008;-64
2021/08/19 01:49:04;;;;;;;;;;;16.80;99.90;;;;;;5011680;28;19933;-65
2021/08/19 01:51:30;;;;;;;;;;;16.80;99.90;;;;;;5012301;28;19945;-65
2021/08/19 01:53:55;;;;;;;;;;;16.80;99.90;;;;;;5011136;28;19917;-65
2021/08/19 01:56:24;;;;;;;;;;;16.80;99.90;;;;;;5011905;28;19918;-65
2021/08/19 01:58:50;;;;;;;;;;;16.80;99.90;;;;;;5011121;28;19917;-65
2021/08/19 02:01:26;;;;;;;;;;;16.70;1.00;;;;;;5011736;28;20231;-65
2021/08/19 02:03:52;;;;;;;;;;;16.70;1.00;;;;;;5011099;28;19913;-65
2021/08/19 02:06:17;;;;;;;;;;;16.60;1.00;;;;;;5011875;28;19909;-65
2021/08/19 02:08:43;;;;;;;;;;;16.60;1.00;;;;;;5011827;28;19968;-66
2021/08/19 02:11:09;;;;;;;;;;;16.60;1.00;;;;;;5010598;28;19917;-66
2021/08/19 02:13:34;;;;;;;;;;;16.60;1.00;;;;;;4990353;28;19913;-66
2021/08/19 02:16:00;;;;;;;;;;;16.60;1.00;;;;;;4991688;28;20016;-66
2021/08/19 02:18:26;;;;;;;;;;;16.50;1.00;;;;;;4991806;28;20511;-66
2021/08/19 02:20:52;;;;;;;;;;;16.60;1.00;;;;;;4991062;28;19976;-66
2021/08/19 02:23:17;;;;;;;;;;;16.50;1.00;;;;;;4990997;28;19910;-66
2021/08/19 02:25:43;;;;;;;;;;;16.50;1.00;;;;;;4991442;28;20334;-66
2021/08/19 02:28:08;;;;;;;;;;;16.50;1.00;;;;;;4995839;28;20000;-66
2021/08/19 02:30:34;;;;;;;;;;;16.50;1.00;;;;;;5011932;28;19910;-65
2021/08/19 02:33:01;;;;;;;;;;;16.50;1.00;;;;;;5010410;28;20603;-65
2021/08/19 02:35:27;;;;;;;;;;;16.40;1.00;;;;;;5011369;28;19910;-67
2021/08/19 02:37:54;;;;;;;;;;;16.40;1.00;;;;;;5011035;28;19913;-65
2021/08/19 02:40:21;;;;;;;;;;;16.40;1.00;;;;;;5011288;28;20488;-67
2021/08/19 02:42:47;;;;;;;;;;;16.30;1.00;;;;;;5009306;28;19916;-65
2021/08/19 02:45:12;;;;;;;;;;;16.30;1.00;;;;;;5011171;28;20448;-67
2021/08/19 02:47:38;;;;;;;;;;;16.30;1.00;;;;;;5010561;28;19929;-65
2021/08/19 02:50:03;;;;;;;;;;;16.30;1.00;;;;;;5010949;28;19918;-65
2021/08/19 02:52:29;;;;;;;;;;;16.40;1.00;;;;;;5010089;28;20319;-65
2021/08/19 02:54:54;;;;;;;;;;;16.40;1.00;;;;;;5010980;28;19923;-65
2021/08/19 02:57:20;;;;;;;;;;;16.40;1.00;;;;;;5009767;28;19909;-65
2021/08/19 02:59:45;;;;;;;;;;;16.40;1.00;;;;;;5010688;28;19914;-65
2021/08/19 03:02:11;;;;;;;;;;;16.50;1.00;;;;;;5009702;28;20375;-65
2021/08/19 03:04:36;;;;;;;;;;;16.50;1.00;;;;;;5010737;28;20128;-66
2021/08/19 03:07:02;;;;;;;;;;;16.50;1.00;;;;;;5011074;28;20429;-66
2021/08/19 03:09:27;;;;;;;;;;;16.50;1.00;;;;;;5010735;28;20023;-66
2021/08/19 03:11:53;;;;;;;;;;;16.50;1.00;;;;;;5005255;28;19917;-66
2021/08/19 03:14:18;;;;;;;;;;;16.50;1.00;;;;;;4994798;28;19929;-66
2021/08/19 03:16:44;;;;;;;;;;;16.60;1.00;;;;;;4991177;28;19914;-66
2021/08/19 03:19:10;;;;;;;;;;;16.50;1.00;;;;;;4991300;28;20400;-66
2021/08/19 03:21:36;;;;;;;;;;;16.50;1.00;;;;;;4991072;28;20239;-66
2021/08/19 03:24:03;;;;;;;;;;;16.50;1.00;;;;;;4989588;28;19925;-65
2021/08/19 03:26:28;;;;;;;;;;;16.40;1.00;;;;;;4991063;28;19914;-65
2021/08/19 03:28:55;;;;;;;;;;;16.40;1.00;;;;;;5001275;28;20311;-65
2021/08/19 03:31:20;;;;;;;;;;;16.50;1.00;;;;;;5010639;28;20379;-66
2021/08/19 03:33:46;;;;;;;;;;;16.40;1.00;;;;;;5008859;28;19913;-66
2021/08/19 03:36:12;;;;;;;;;;;16.40;1.00;;;;;;5010792;28;19917;-66
2021/08/19 03:38:37;;;;;;;;;;;16.50;1.00;;;;;;5010227;28;19910;-66
2021/08/19 03:41:03;;;;;;;;;;;16.50;1.00;;;;;;5010141;28;19916;-66
2021/08/19 03:43:28;;;;;;;;;;;16.50;1.00;;;;;;5009049;28;20255;-66
2021/08/19 03:45:53;;;;;;;;;;;16.40;1.00;;;;;;5010214;28;19996;-66
2021/08/19 03:48:19;;;;;;;;;;;16.40;1.00;;;;;;5009903;28;19913;-66
2021/08/19 03:50:45;;;;;;;;;;;16.40;1.00;;;;;;5011268;28;19910;-66
2021/08/19 03:53:11;;;;;;;;;;;16.40;1.00;;;;;;5009068;28;19936;-66
2021/08/19 03:55:37;;;;;;;;;;;16.40;1.00;;;;;;5010398;28;19948;-66
2021/08/19 03:58:03;;;;;;;;;;;16.40;1.00;;;;;;5009215;28;19937;-66
2021/08/19 04:00:28;;;;;;;;;;;16.40;1.00;;;;;;5008603;28;20290;-66
2021/08/19 04:02:54;;;;;;;;;;;16.40;1.00;;;;;;5009177;28;19921;-66
2021/08/19 04:05:19;;;;;;;;;;;16.40;1.00;;;;;;5010233;28;19968;-66
2021/08/19 04:07:45;;;;;;;;;;;16.40;1.00;;;;;;5009597;28;19914;-66
2021/08/19 04:10:10;;;;;;;;;;;16.30;1.00;;;;;;5009876;28;19916;-66
2021/08/19 04:12:36;;;;;;;;;;;16.30;1.00;;;;;;4996469;28;19988;-66
2021/08/19 04:15:03;;;;;;;;;;;16.40;1.00;;;;;;5010287;28;19918;-66
2021/08/19 04:17:29;;;;;;;;;;;16.40;1.00;;;;;;5009692;28;20350;-66
2021/08/19 04:19:54;;;;;;;;;;;16.50;1.00;;;;;;5006630;28;19909;-66
2021/08/19 04:22:20;;;;;;;;;;;16.40;1.00;;;;;;5007987;28;19914;-67
2021/08/19 04:24:45;;;;;;;;;;;16.40;1.00;;;;;;5010062;28;19917;-67
2021/08/19 04:27:11;;;;;;;;;;;16.40;1.00;;;;;;5004116;28;19917;-67
2021/08/19 04:29:36;;;;;;;;;;;16.40;1.00;;;;;;5005976;28;19936;-67
2021/08/19 04:32:04;;;;;;;;;;;16.40;1.00;;;;;;5001694;28;19920;-67
2021/08/19 04:34:30;;;;;;;;;;;16.40;1.00;;;;;;5006381;28;19917;-67
2021/08/19 04:36:55;;;;;;;;;;;16.40;1.00;;;;;;5008526;28;19909;-67
2021/08/19 04:39:21;;;;;;;;;;;16.40;1.00;;;;;;5009702;28;20413;-67
2021/08/19 04:41:46;;;;;;;;;;;16.40;1.00;;;;;;5009240;28;19910;-67
2021/08/19 04:44:12;;;;;;;;;;;16.40;1.00;;;;;;5009426;28;20338;-67
2021/08/19 04:46:37;;;;;;;;;;;16.40;1.00;;;;;;5010273;28;19913;-67
2021/08/19 04:49:05;;;;;;;;;;;16.40;1.00;;;;;;5009466;28;19961;-67
2021/08/19 04:51:32;;;;;;;;;;;16.40;1.00;;;;;;5009423;28;19916;-67
2021/08/19 04:53:57;;;;;;;;;;;16.50;1.00;;;;;;5008718;28;19968;-67
2021/08/19 04:56:27;;;;;;;;;;;16.50;1.00;;;;;;5009080;28;19914;-67
2021/08/19 04:58:53;;;;;;;;;;;16.60;1.00;;;;;;5009274;28;19919;-66
2021/08/19 05:01:18;;;;;;;;;;;16.60;1.00;;;;;;5010098;28;20025;-67
2021/08/19 05:03:43;;;;;;;;;;;16.60;1.00;;;;;;5008737;28;19910;-68
2021/08/19 05:06:09;;;;;;;;;;;16.60;1.00;;;;;;5024007;23;19974;-67
2021/08/19 05:08:34;;;;;;;;;;;16.60;1.00;;;;;;5028239;28;20004;-68
2021/08/19 05:11:00;;;;;;;;;;;16.60;1.00;;;;;;5027767;28;20599;-69
2021/08/19 05:13:25;;;;;;;;;;;16.60;1.00;;;;;;5026900;28;19959;-68
2021/08/19 05:15:51;;;;;;;;;;;16.70;1.00;;;;;;5028702;28;20284;-66
2021/08/19 05:18:16;;;;;;;;;;;16.70;1.00;;;;;;5028165;28;20361;-68
2021/08/19 05:20:42;;;;;;;;;;;16.70;1.00;;;;;;5028262;28;19909;-68
2021/08/19 05:23:07;;;;;;;;;;;16.70;1.00;;;;;;5027271;28;19917;-67
2021/08/19 05:25:33;;;;;;;;;;;16.80;1.00;;;;;;5017414;28;19929;-65
2021/08/19 05:27:58;;;;;;;;;;;16.80;1.00;;;;;;5023474;28;19913;-66
2021/08/19 05:30:24;;;;;;;;;;;16.90;1.00;;;;;;5027561;28;19910;-66
2021/08/19 05:32:49;;;;;;;;;;;16.90;1.00;;;;;;5026787;28;19920;-66
2021/08/19 05:35:15;;;;;;;;;;;16.90;1.00;;;;;;5026622;28;20038;-65
2021/08/19 05:37:40;;;;;;;;;;;16.90;1.00;;;;;;5028320;28;19979;-65
2021/08/19 05:40:06;;;;;;;;;;;17.00;1.00;;;;;;5027914;28;19916;-64
2021/08/19 05:42:32;;;;;;;;;;;17.00;1.00;;;;;;5025819;28;19917;-65
2021/08/19 05:44:57;;;;;;;;;;;17.20;1.00;;;;;;5028152;28;19917;-67
2021/08/19 05:47:23;;;;;;;;;;;17.20;1.00;;;;;;5027519;28;19910;-66
2021/08/19 05:49:48;;;;;;;;;;;17.20;1.00;;;;;;5019734;28;19913;-67
2021/08/19 05:52:15;;;;;;;;;;;17.30;1.00;;;;;;5027077;28;19913;-67
2021/08/19 05:54:41;;;;;;;;;;;17.30;1.00;;;;;;5026455;28;19917;-65
2021/08/19 05:57:06;;;;;;;;;;;17.30;1.00;;;;;;5027385;28;19920;-67
2021/08/19 05:59:32;;;;;;;;;;;17.30;99.90;;;;;;5018879;28;19916;-68
2021/08/19 06:01:57;;;;;;;;;;;17.30;99.90;;;;;;5027110;28;19920;-65
2021/08/19 06:04:23;;;;;;;;;;;17.40;99.90;;;;;;5027547;28;19913;-67
2021/08/19 06:06:48;;;;;;;;;;;17.40;99.90;;;;;;5027653;28;19921;-67
2021/08/19 06:09:14;;;;;;;;;;;17.50;99.90;;;;;;5027709;28;19920;-67
2021/08/19 06:11:39;;;;;;;;;;;17.50;99.90;;;;;;5027282;28;20340;-67
2021/08/19 06:14:05;;;;;;;;;;;17.60;99.90;;;;;;5025693;28;20008;-67
2021/08/19 06:16:31;;;;;;;;;;;17.70;99.90;;;;;;5027473;28;19940;-67
2021/08/19 06:18:57;;;;;;;;;;;17.70;99.90;;;;;;5025163;28;20026;-66
2021/08/19 06:21:23;;;;;;;;;;;17.90;99.90;;;;;;5020571;28;19996;-67
2021/08/19 06:23:49;;;;;;;;;;;18.00;1.00;;;;;;5026720;28;19913;-65
2021/08/19 06:26:14;;;;;;;;;;;18.00;1.00;;;;;;5026112;28;20027;-66
2021/08/19 06:28:40;;;;;;;;;;;18.00;1.00;;;;;;5026002;28;20430;-66
2021/08/19 06:31:05;;;;;;;;;;;18.00;1.00;;;;;;5026728;28;19986;-67
2021/08/19 06:33:31;;;;;;;;;;;18.10;1.00;;;;;;5025975;28;19913;-67
2021/08/19 06:35:56;;;;;;;;;;;18.20;99.90;;;;;;5027369;28;19909;-68
2021/08/19 06:38:22;;;;;;;;;;;18.20;99.90;;;;;;5028897;28;19910;-67
2021/08/19 06:40:47;;;;;;;;;;;18.30;1.00;;;;;;5030206;28;20393;-67
2021/08/19 06:43:13;;;;;;;;;;;18.20;1.00;;;;;;5028762;28;19909;-67
2021/08/19 06:45:38;;;;;;;;;;;18.30;99.90;;;;;;5030031;28;20019;-67
2021/08/19 06:48:04;;;;;;;;;;;18.50;1.00;;;;;;5029179;28;20388;-66
2021/08/19 06:50:29;;;;;;;;;;;18.60;1.00;;;;;;5022262;28;19924;-66
2021/08/19 06:52:55;;;;;;;;;;;18.70;1.00;;;;;;5029122;28;20429;-66
2021/08/19 06:55:21;;;;;;;;;;;18.90;99.90;;;;;;5030074;28;19971;-66
2021/08/19 06:57:46;;;;;;;;;;;19.00;1.00;;;;;;5029458;28;19970;-67
2021/08/19 07:00:12;;;;;;;;;;;19.20;1.00;;;;;;5030909;28;19909;-67
2021/08/19 07:02:38;;;;;;;;;;;19.40;99.90;;;;;;5029501;28;19978;-67
2021/08/19 07:05:04;;;;;;;;;;;19.40;99.90;;;;;;5030449;28;19917;-66
2021/08/19 07:07:30;;;;;;;;;;;19.50;17.00;;;;;;5029654;28;19924;-65
2021/08/19 07:09:55;;;;;;;;;;;19.60;1.00;;;;;;5030391;28;19909;-67
2021/08/19 07:12:24;;;;;;;;;;;19.80;1.00;;;;;;5028932;28;20000;-66
2021/08/19 07:14:49;;;;;;;;;;;20.00;1.00;;;;;;5030372;28;19935;-66
2021/08/19 07:17:15;;;;;;;;;;;20.20;1.00;;;;;;5029543;28;19909;-66
2021/08/19 07:19:40;;;;;;;;;;;20.30;99.90;;;;;;5029919;28;19992;-66
2021/08/19 07:22:06;;;;;;;;;;;20.40;99.90;;;;;;5030019;28;19913;-66
2021/08/19 07:24:31;;;;;;;;;;;20.60;4.40;;;;;;5029207;28;19949;-66
2021/08/19 07:26:57;;;;;;;;;;;20.60;1.00;;;;;;5029703;28;19920;-66
2021/08/19 07:29:22;;;;;;;;;;;20.70;1.00;;;;;;5028747;28;19909;-66
2021/08/19 07:31:48;;;;;;;;;;;21.00;1.00;;;;;;5029511;28;19947;-66
2021/08/19 07:34:13;;;;;;;;;;;21.10;1.00;;;;;;5029376;28;19916;-66
2021/08/19 07:36:39;;;;;;;;;;;21.20;1.00;;;;;;5029792;28;19987;-66
2021/08/19 07:39:04;;;;;;;;;;;21.70;1.00;;;;;;5029140;28;19931;-66
2021/08/19 07:41:31;;;;;;;;;;;22.30;1.00;;;;;;5029859;28;19971;-66
2021/08/19 07:43:56;;;;;;;;;;;22.70;99.90;;;;;;5028447;28;19955;-66
2021/08/19 07:46:22;;;;;;;;;;;23.10;99.90;;;;;;5029991;28;19913;-66
2021/08/19 07:48:47;;;;;;;;;;;23.60;99.90;;;;;;5029508;28;19909;-66
2021/08/19 07:51:15;;;;;;;;;;;23.90;99.90;;;;;;5030175;28;20373;-66
2021/08/19 07:53:41;;;;;;;;;;;24.30;99.90;;;;;;5028959;28;19909;-66
2021/08/19 07:56:06;;;;;;;;;;;24.70;99.90;;;;;;5029675;28;19970;-66
2021/08/19 07:58:32;;;;;;;;;;;25.10;99.90;;;;;;5028622;28;19942;-66
2021/08/19 08:00:58;;;;;;;;;;;25.60;99.90;;;;;;5029742;28;19920;-66
2021/08/19 08:03:24;;;;;;;;;;;26.40;99.90;;;;;;5028655;28;19948;-65
2021/08/19 08:05:49;;;;;;;;;;;26.90;99.90;;;;;;5029030;28;19948;-65
2021/08/19 08:08:15;;;;;;;;;;;27.50;99.90;;;;;;5029062;28;19909;-66
2021/08/19 08:10:42;;;;;;;;;;;28.20;99.90;;;;;;5028728;28;19909;-66
2021/08/19 08:13:08;;;;;;;;;;;28.50;99.90;;;;;;5022248;28;19988;-65
2021/08/19 08:15:35;;;;;;;;;;;28.60;99.90;;;;;;5026411;28;19910;-65
2021/08/19 08:18:01;;;;;;;;;;;29.00;99.90;;;;;;5028664;28;19913;-66
2021/08/19 08:20:26;;;;;;;;;;;29.60;99.90;;;;;;5031658;28;20362;-65
2021/08/19 08:22:52;;;;;;;;;;;30.80;99.90;;;;;;5032090;28;20374;-65
2021/08/19 08:25:18;;;;;;;;;;;31.90;99.90;;;;;;5031551;28;19913;-65
2021/08/19 08:27:53;;;;;;;;;;;33.10;99.90;;;;;;5030985;28;20000;-65
2021/08/19 08:30:19;;;;;;;;;;;34.10;99.90;;;;;;5032685;28;19913;-65
2021/08/19 08:32:44;;;;;;;;;;;35.60;99.90;;;;;;5031876;28;19932;-65
2021/08/19 08:35:10;;;;;;;;;;;37.40;99.90;;;;;;5032563;28;19917;-65
2021/08/19 08:37:36;;;;;;;;;;;37.70;99.90;;;;;;5032452;28;19920;-65
2021/08/19 08:40:02;;;;;;;;;;;39.80;99.90;;;;;;5032495;28;19910;-65
2021/08/19 08:42:28;;;;;;;;;;;39.90;99.90;;;;;;5030708;28;19959;-65
2021/08/19 08:44:54;;;;;;;;;;;39.50;99.90;;;;;;5032165;28;19913;-65
2021/08/19 08:47:19;;;;;;;;;;;37.60;99.90;;;;;;5032140;28;19924;-65
2021/08/19 08:49:45;;;;;;;;;;;37.90;99.90;;;;;;5012455;28;19992;-65
2021/08/19 08:52:11;;;;;;;;;;;38.80;99.90;;;;;;5011479;28;19979;-65
2021/08/19 08:54:36;;;;;;;;;;;39.50;99.90;;;;;;5012850;28;19909;-65
2021/08/19 08:57:02;;;;;;;;;;;40.80;99.90;;;;;;5012078;28;20396;-65
2021/08/19 08:59:28;;;;;;;;;;;40.10;99.90;;;;;;5011940;28;19910;-65
2021/08/19 09:01:54;;;;;;;;;;;37.30;99.90;;;;;;5012238;28;20044;-65
2021/08/19 09:04:20;;;;;;;;;;;36.60;99.90;;;;;;5012037;28;19925;-65
2021/08/19 09:06:46;;;;;;;;;;;38.00;99.90;;;;;;5012103;28;19921;-65
2021/08/19 09:09:14;;;;;;;;;;;39.10;99.90;;;;;;5012293;28;20436;-65
2021/08/19 09:11:40;;;;;;;;;;;38.30;97.50;;;;;;5011732;28;19923;-65
2021/08/19 09:14:16;;;;;;;;;;;39.40;95.30;;;;;;5010299;28;19909;-65
2021/08/19 09:16:45;;;;;;;;;;;40.50;93.70;;;;;;5012320;28;20048;-65
2021/08/19 09:19:11;;;;;;;;;;;42.30;90.40;;;;;;5012158;28;19909;-65
2021/08/19 09:21:44;;;;;;;;;;;43.60;83.80;;;;;;5029807;28;19916;-65
2021/08/19 09:24:26;;;;;;;;;;;44.00;73.50;;;;;;5031070;28;19920;-65
2021/08/19 09:26:53;;;;;;;;;;;44.90;65.70;;;;;;5031437;28;20409;-65
2021/08/19 09:29:19;;;;;;;;;;;43.60;54.80;;;;;;5030916;28;19932;-65
2021/08/19 09:31:44;;;;;;;;;;;42.70;48.20;;;;;;5030908;28;19936;-65
2021/08/19 09:34:10;;;;;;;;;;;43.60;45.30;;;;;;5030664;28;19939;-65
2021/08/19 09:36:36;;;;;;;;;;;44.80;41.30;;;;;;5031801;28;19909;-65
2021/08/19 09:39:04;;;;;;;;;;;44.50;35.90;;;;;;5031286;28;20003;-66
2021/08/19 09:41:29;;;;;;;;;;;44.10;30.40;;;;;;5031089;28;19999;-66
2021/08/19 09:43:55;;;;;;;;;;;43.40;26.50;;;;;;5029593;28;20008;-66
2021/08/19 09:46:47;;;;;;;;;;;42.90;23.80;;;;;;5031203;28;19928;-66
2021/08/19 09:49:22;;;;;;;;;;;41.60;21.00;;;;;;5021541;28;19917;-66
2021/08/19 09:52:02;;;;;;;;;;;39.70;17.70;;;;;;5030234;28;20547;-66
2021/08/19 09:54:29;;;;;;;;;;;38.40;17.00;;;;;;5030631;28;20000;-66
2021/08/19 09:56:54;;;;;;;;;;;36.90;17.00;;;;;;5030892;28;19928;-66
2021/08/19 09:59:21;;;;;;;;;;;35.90;17.70;;;;;;5030117;28;20208;-65
2021/08/19 10:01:47;;;;;;;;;;;33.30;18.10;;;;;;5030506;28;19909;-66
2021/08/19 10:04:13;;;;;;;;;;;32.10;21.40;;;;;;5030690;28;19931;-65
2021/08/19 10:06:39;;;;;;;;;;;30.60;24.10;;;;;;5031957;28;20358;-65
2021/08/19 10:09:05;;;;;;;;;;;30.00;27.20;;;;;;5030945;28;19925;-65
2021/08/19 10:11:32;;;;;;;;;;;29.10;30.30;;;;;;5030886;28;19931;-65
2021/08/19 10:13:57;;;;;;;;;;;28.40;33.10;;;;;;5029168;28;19979;-65
2021/08/19 10:16:23;;;;;;;;;;;27.90;37.10;;;;;;5031322;28;19913;-65
2021/08/19 10:18:50;;;;;;;;;;;27.50;41.40;;;;;;5030608;28;19913;-65
2021/08/19 10:21:16;;;;;;;;;;;27.40;45.90;;;;;;5031151;28;19910;-65
2021/08/19 10:23:42;;;;;;;;;;;27.30;49.00;;;;;;5030539;28;19910;-65
2021/08/19 10:26:09;;;;;;;;;;;26.90;53.10;;;;;;5030362;28;20025;-65
2021/08/19 10:28:45;;;;;;;;;;;26.60;57.20;;;;;;5029736;28;20413;-65
2021/08/19 10:31:10;;;;;;;;;;;26.60;60.50;;;;;;5030856;28;20329;-65
2021/08/19 10:33:36;;;;;;;;;;;26.60;67.20;;;;;;5029438;28;20035;-65
2021/08/19 10:36:21;;;;;;;;;;;26.90;70.70;;;;;;5030252;28;19941;-65
2021/08/19 10:38:47;;;;;;;;;;;27.30;75.60;;;;;;5022549;28;19917;-65
2021/08/19 10:41:30;;;;;;;;;;;27.10;77.90;;;;;;5029597;28;20000;-65
2021/08/19 10:44:03;;;;;;;;;;;27.20;81.80;;;;;;5028743;28;20011;-65
2021/08/19 10:46:37;;;;;;;;;;;27.50;86.30;;;;;;5029894;28;19913;-65
2021/08/19 10:49:02;;;;;;;;;;;27.80;90.00;;;;;;5023135;28;19920;-65
2021/08/19 10:51:29;;;;;;;;;;;27.70;98.60;;;;;;5017013;28;19909;-66
2021/08/19 10:53:55;;;;;;;;;;;26.60;90.90;;;;;;5020219;28;19917;-66
2021/08/19 10:56:40;;;;;;;;;;;26.30;92.80;;;;;;5012989;28;20291;-66
2021/08/19 10:59:24;;;;;;;;;;;26.00;94.80;;;;;;5009756;28;20410;-66
2021/08/19 11:01:50;;;;;;;;;;;26.20;96.60;;;;;;5009604;28;19917;-66
2021/08/19 11:04:35;;;;;;;;;;;26.60;98.60;;;;;;5009960;28;19996;-66
2021/08/19 11:07:02;;;;;;;;;;;27.10;99.90;;;;;;5009984;28;19996;-66
2021/08/19 11:09:28;;;;;;;;;;;27.60;99.90;;;;;;5009591;28;19910;-66
2021/08/19 11:11:54;;;;;;;;;;;28.20;99.90;;;;;;5019625;28;19916;-66
2021/08/19 11:14:21;;;;;;;;;;;28.60;99.90;;;;;;5020254;28;19916;-66
2021/08/19 11:16:54;;;;;;;;;;;28.90;99.90;;;;;;5029243;28;19917;-67
2021/08/19 11:19:21;;;;;;;;;;;29.20;99.90;;;;;;5029665;28;19913;-67
2021/08/19 11:22:14;;;;;;;;;;;29.50;99.90;;;;;;5028747;28;19913;-66
2021/08/19 11:24:39;;;;;;;;;;;29.00;99.10;;;;;;5028348;28;19913;-66
2021/08/19 11:27:09;;;;;;;;;;;28.50;99.00;;;;;;5028820;28;19968;-66
2021/08/19 11:29:36;;;;;;;;;;;28.80;99.10;;;;;;5028918;28;19913;-66
2021/08/19 11:32:03;;;;;;;;;;;29.00;99.20;;;;;;5020607;28;19925;-66
2021/08/19 11:34:28;;;;;;;;;;;30.20;99.90;;;;;;5018566;28;19909;-66
2021/08/19 11:36:54;;;;;;;;;;;30.20;99.40;;;;;;5019868;28;19916;-66
2021/08/19 11:39:29;;;;;;;;;;;29.40;98.00;;;;;;5018589;28;19913;-66
2021/08/19 11:42:05;;;;;;;;;;;30.60;99.00;;;;;;5013536;28;19917;-66
2021/08/19 11:44:31;;;;;;;;;;;31.60;98.20;;;;;;5011569;28;19937;-67
2021/08/19 11:47:01;;;;;;;;;;;31.60;96.50;;;;;;5019234;28;19956;-66
2021/08/19 11:49:26;;;;;;;;;;;30.90;95.00;;;;;;5025532;28;20293;-66
2021/08/19 11:51:59;;;;;;;;;;;30.80;94.40;;;;;;5008942;28;19910;-66
2021/08/19 11:54:36;;;;;;;;;;;30.40;93.80;;;;;;5012493;28;19910;-66
2021/08/19 11:57:01;;;;;;;;;;;30.00;93.30;;;;;;5012950;28;19925;-66
2021/08/19 11:59:27;;;;;;;;;;;29.60;93.40;;;;;;5012601;28;20231;-66
2021/08/19 12:01:53;;;;;;;;;;;29.10;93.10;;;;;;5013101;28;19910;-66
2021/08/19 12:04:28;;;;;;;;;;;28.90;93.70;;;;;;5012893;28;19914;-66
2021/08/19 12:06:57;;;;;;;;;;;28.50;94.50;;;;;;5014327;28;19933;-66
2021/08/19 12:09:23;;;;;;;;;;;28.30;94.20;;;;;;5013114;28;19971;-66
2021/08/19 12:11:49;;;;;;;;;;;28.00;94.90;;;;;;5012197;28;20265;-66
2021/08/19 12:14:15;;;;;;;;;;;27.80;96.00;;;;;;5012502;28;19913;-66
2021/08/19 12:16:47;;;;;;;;;;;27.40;96.90;;;;;;5013614;28;20008;-66
2021/08/19 12:19:16;;;;;;;;;;;27.20;98.60;;;;;;5013043;28;20409;-66
2021/08/19 12:22:01;;;;;;;;;;;26.80;99.20;;;;;;5031741;28;19913;-66
2021/08/19 12:24:31;;;;;;;;;;;26.60;99.90;;;;;;5032082;28;20341;-66
2021/08/19 12:27:03;;;;;;;;;;;26.30;99.90;;;;;;5032556;28;19909;-66
2021/08/19 12:29:29;;;;;;;;;;;26.00;99.90;;;;;;5031341;28;19909;-66
2021/08/19 12:31:57;;;;;;;;;;;25.80;99.90;;;;;;5032313;28;20370;-66
2021/08/19 12:34:24;;;;;;;;;;;25.60;99.90;;;;;;5032431;28;19909;-66
2021/08/19 12:36:50;;;;;;;;;;;25.40;99.90;;;;;;5032337;28;20332;-66
2021/08/19 12:39:23;;;;;;;;;;;25.20;99.90;;;;;;5032212;28;19917;-65
2021/08/19 12:41:50;;;;;;;;;;;25.10;99.90;;;;;;5031702;28;20096;-66
2021/08/19 12:44:17;;;;;;;;;;;25.00;99.90;;;;;;5030926;28;19909;-65
2021/08/19 12:46:43;;;;;;;;;;;24.90;99.90;;;;;;5032634;28;20338;-66
2021/08/19 12:49:20;;;;;;;;;;;24.80;99.90;;;;;;5023656;28;19916;-66
2021/08/19 12:51:46;;;;;;;;;;;24.80;99.90;;;;;;5009343;28;19914;-66
2021/08/19 12:54:18;;;;;;;;;;;24.80;99.90;;;;;;5011808;28;19921;-65
2021/08/19 12:56:57;;;;;;;;;;;25.00;99.90;;;;;;5012258;28;20003;-65
2021/08/19 12:59:22;;;;;;;;;;;25.10;99.90;;;;;;5010548;28;19910;-66
2021/08/19 13:01:48;;;;;;;;;;;25.20;99.90;;;;;;5011363;28;19910;-66
2021/08/19 13:04:13;;;;;;;;;;;25.30;99.90;;;;;;5010832;28;20456;-66
2021/08/19 13:06:39;;;;;;;;;;;25.50;99.90;;;;;;5011698;28;20042;-66
2021/08/19 13:09:04;;;;;;;;;;;25.50;99.90;;;;;;5011848;28;19972;-66
2021/08/19 13:11:29;;;;;;;;;;;25.70;99.90;;;;;;5011839;28;19914;-66
2021/08/19 13:13:55;;;;;;;;;;;25.80;99.90;;;;;;5010120;28;19917;-66
2021/08/19 13:16:20;;;;;;;;;;;26.00;99.90;;;;;;5011939;28;19910;-66
2021/08/19 13:18:46;;;;;;;;;;;26.10;99.90;;;;;;5012121;28;20557;-66
2021/08/19 13:21:11;;;;;;;;;;;26.30;99.90;;;;;;5026215;28;19944;-65
2021/08/19 13:23:37;;;;;;;;;;;26.30;99.90;;;;;;5030972;28;19909;-66
2021/08/19 13:26:04;;;;;;;;;;;26.40;99.90;;;;;;5031543;28;19960;-66
2021/08/19 13:28:29;;;;;;;;;;;26.30;99.90;;;;;;5030906;28;20003;-66
2021/08/19 13:30:55;;;;;;;;;;;26.40;99.90;;;;;;5032089;28;20421;-66
2021/08/19 13:33:21;;;;;;;;;;;26.40;99.90;;;;;;5031287;28;19924;-66
2021/08/19 13:35:46;;;;;;;;;;;26.40;99.90;;;;;;5031653;28;20016;-66
2021/08/19 13:38:12;;;;;;;;;;;26.60;99.90;;;;;;5031616;28;20289;-66
2021/08/19 13:40:40;;;;;;;;;;;26.60;99.90;;;;;;5032177;28;19975;-66
2021/08/19 13:43:06;;;;;;;;;;;26.60;99.90;;;;;;5030240;28;19988;-66
2021/08/19 13:45:31;;;;;;;;;;;26.60;99.90;;;;;;5031684;28;20353;-66
2021/08/19 13:47:57;;;;;;;;;;;26.80;99.90;;;;;;5030903;28;19909;-66
2021/08/19 13:50:23;;;;;;;;;;;26.90;99.90;;;;;;5023394;28;19962;-67
2021/08/19 13:52:48;;;;;;;;;;;26.90;99.90;;;;;;5030911;28;20267;-66
2021/08/19 13:55:14;;;;;;;;;;;27.10;99.90;;;;;;5031437;28;20436;-66
2021/08/19 13:57:39;;;;;;;;;;;27.30;99.90;;;;;;5030151;28;19917;-66
2021/08/19 14:00:05;;;;;;;;;;;27.40;99.90;;;;;;5031292;28;20630;-66
2021/08/19 14:02:30;;;;;;;;;;;27.60;99.90;;;;;;5030538;28;19913;-66
2021/08/19 14:04:56;;;;;;;;;;;27.70;99.90;;;;;;5031643;28;19953;-66
2021/08/19 14:07:21;;;;;;;;;;;27.90;99.90;;;;;;5031418;28;19924;-66
2021/08/19 14:09:47;;;;;;;;;;;27.80;99.90;;;;;;5031314;28;19919;-66
2021/08/19 14:12:12;;;;;;;;;;;27.80;99.90;;;;;;5029553;28;19932;-66
2021/08/19 14:14:38;;;;;;;;;;;27.80;99.90;;;;;;5030403;28;19935;-66
2021/08/19 14:17:03;;;;;;;;;;;27.70;99.90;;;;;;5030048;28;19965;-66
2021/08/19 14:19:29;;;;;;;;;;;27.60;99.90;;;;;;5031022;28;19920;-67